createdAt,value
2022-12-11T00:02:12.985Z,0.80
2022-12-11T00:04:41.073Z,0.70
2022-12-11T00:07:09.109Z,0.60
2022-12-11T00:09:37.236Z,0.60
2022-12-11T00:12:07.719Z,0.60
2022-12-11T00:14:36.063Z,0.60
2022-12-11T00:17:04.221Z,0.60
2022-12-11T00:19:32.283Z,0.70
2022-12-11T00:22:00.355Z,0.70
2022-12-11T00:24:28.243Z,0.70
2022-12-11T00:26:56.295Z,0.70
2022-12-11T00:29:25.561Z,0.70
2022-12-11T00:31:53.724Z,0.60
2022-12-11T00:34:21.797Z,0.70
2022-12-11T00:36:50.123Z,0.60
2022-12-11T00:39:18.232Z,0.70
2022-12-11T00:41:46.389Z,0.60
2022-12-11T00:44:14.326Z,0.70
2022-12-11T00:46:43.775Z,0.70
2022-12-11T00:49:11.852Z,0.60
2022-12-11T00:51:39.988Z,0.60
2022-12-11T00:54:08.032Z,0.60
2022-12-11T00:56:36.042Z,0.60
2022-12-11T00:59:04.286Z,0.50
2022-12-11T01:01:32.396Z,0.50
2022-12-11T01:04:01.891Z,0.40
2022-12-11T01:06:30.278Z,0.50
2022-12-11T01:09:12.569Z,0.50
2022-12-11T01:11:41.385Z,0.50
2022-12-11T01:14:09.950Z,0.60
2022-12-11T01:16:38.258Z,0.60
2022-12-11T01:19:07.721Z,0.60
2022-12-11T01:21:35.760Z,0.50
2022-12-11T01:24:03.825Z,0.60
2022-12-11T01:26:31.778Z,0.50
2022-12-11T01:29:00.085Z,0.40
2022-12-11T01:31:28.342Z,0.50
2022-12-11T01:33:56.624Z,0.50
2022-12-11T01:36:25.922Z,0.50
2022-12-11T01:38:54.588Z,0.60
2022-12-11T01:41:23.491Z,0.50
2022-12-11T01:43:59.305Z,0.60
2022-12-11T01:46:28.518Z,0.70
2022-12-11T01:48:57.525Z,0.70
2022-12-11T01:51:27.950Z,0.70
2022-12-11T01:54:00.286Z,0.70
2022-12-11T01:56:29.358Z,0.70
2022-12-11T01:59:00.876Z,0.70
2022-12-11T02:01:34.426Z,0.70
2022-12-11T02:04:03.152Z,0.70
2022-12-11T10:38:23.739Z,0.40
2022-12-11T10:40:54.094Z,3.10
2022-12-11T10:43:22.025Z,2.90
2022-12-11T10:45:54.775Z,2.70
2022-12-11T10:48:23.586Z,2.80
2022-12-11T10:51:01.879Z,2.80
2022-12-11T10:53:32.504Z,2.70
2022-12-11T10:56:01.533Z,2.70
2022-12-11T10:58:34.299Z,2.90
2022-12-11T11:01:11.350Z,3.70
2022-12-11T11:03:53.888Z,3.60
2022-12-11T11:06:24.841Z,3.40
2022-12-11T11:08:55.874Z,3.00
2022-12-11T11:11:28.172Z,2.80
2022-12-11T11:14:14.298Z,2.80
2022-12-11T11:16:44.737Z,2.50
2022-12-11T11:19:23.829Z,2.40
2022-12-11T11:21:54.901Z,2.20
2022-12-11T11:24:35.041Z,2.20
2022-12-11T11:27:18.795Z,2.20
2022-12-11T11:29:52.796Z,2.20
2022-12-11T11:32:23.995Z,2.20
2022-12-11T11:34:52.049Z,2.30
2022-12-11T11:37:26.891Z,2.40
2022-12-11T11:40:03.137Z,2.40
2022-12-11T11:42:38.821Z,2.30
2022-12-11T11:45:14.058Z,2.10
2022-12-11T11:47:50.915Z,1.90
2022-12-11T11:50:23.176Z,1.70
2022-12-11T11:52:57.364Z,1.50
2022-12-11T11:55:38.550Z,1.50
2022-12-11T11:58:13.732Z,1.60
2022-12-11T12:00:41.927Z,1.70
2022-12-11T12:03:13.509Z,1.60
2022-12-11T12:05:46.639Z,1.70
2022-12-11T12:08:23.053Z,1.90
2022-12-11T12:11:00.131Z,2.00
2022-12-11T12:13:51.248Z,2.00
2022-12-11T12:16:52.237Z,2.10
2022-12-11T12:19:27.882Z,2.10
2022-12-11T12:21:56.077Z,2.00
2022-12-11T12:24:38.700Z,1.80
2022-12-11T12:27:49.887Z,1.90
2022-12-11T12:30:15.068Z,2.00
2022-12-11T12:33:00.124Z,2.10
2022-12-11T12:35:36.587Z,2.10
2022-12-11T12:38:12.753Z,2.30
2022-12-11T12:40:55.817Z,2.20
2022-12-11T12:43:53.279Z,2.20
2022-12-11T12:46:34.173Z,2.10
2022-12-11T12:49:03.676Z,2.10
2022-12-11T12:51:31.993Z,2.10
2022-12-11T12:54:05.577Z,2.10
2022-12-11T12:56:40.606Z,2.10
2022-12-11T12:59:20.576Z,2.10
2022-12-11T13:01:52.189Z,2.10
2022-12-11T13:04:55.725Z,2.20
2022-12-11T13:07:29.850Z,1.90
2022-12-11T13:10:01.579Z,1.80
2022-12-11T13:12:40.641Z,1.90
2022-12-11T13:15:28.953Z,1.80
2022-12-11T13:17:57.306Z,1.80
2022-12-11T13:20:27.385Z,1.70
2022-12-11T13:23:09.007Z,1.50
2022-12-11T13:25:49.460Z,1.50
2022-12-11T13:28:25.165Z,1.50
2022-12-11T13:31:24.396Z,1.40
2022-12-11T13:33:55.713Z,1.50
2022-12-11T13:36:29.689Z,1.50
2022-12-11T13:39:01.073Z,1.60
2022-12-11T13:41:30.032Z,1.60
2022-12-11T13:43:59.787Z,1.60
2022-12-11T13:46:32.615Z,1.40
2022-12-11T13:49:03.983Z,1.30
2022-12-11T13:51:35.030Z,1.20
2022-12-11T13:54:09.777Z,1.20
2022-12-11T13:56:39.631Z,1.10
2022-12-11T13:59:19.611Z,1.00
2022-12-11T14:01:48.853Z,1.10
2022-12-11T14:04:20.908Z,1.10
2022-12-11T14:06:49.060Z,1.10
2022-12-11T14:09:20.118Z,1.30
2022-12-11T14:11:53.532Z,1.30
2022-12-11T14:14:29.829Z,1.30
2022-12-11T14:16:59.150Z,1.30
2022-12-11T14:19:27.264Z,1.30
2022-12-11T14:22:00.003Z,1.30
2022-12-11T14:24:28.303Z,1.30
2022-12-11T14:26:56.481Z,1.20
2022-12-11T14:29:32.740Z,1.10
2022-12-11T14:32:05.199Z,1.00
2022-12-11T14:34:38.189Z,1.00
2022-12-11T14:37:08.157Z,1.00
2022-12-11T14:39:42.017Z,1.00
2022-12-11T14:42:16.048Z,0.90
2022-12-11T14:44:50.276Z,0.80
2022-12-11T14:47:22.543Z,0.70
2022-12-11T14:49:55.400Z,0.60
2022-12-11T14:52:26.915Z,0.60
2022-12-11T14:54:59.220Z,0.60
2022-12-11T14:57:30.987Z,0.40
2022-12-11T14:59:59.575Z,0.30
2022-12-11T15:02:32.745Z,0.10
2022-12-11T15:05:13.531Z,0.10
2022-12-11T15:07:42.753Z,0.10
2022-12-11T15:10:28.476Z,0.00
2022-12-11T15:12:56.545Z,0.00
2022-12-11T15:15:24.981Z,-0.10
2022-12-11T15:17:55.006Z,-0.10
2022-12-11T15:20:27.055Z,-0.10
2022-12-11T15:22:58.585Z,0.00
2022-12-11T15:25:29.187Z,0.00
2022-12-11T15:27:59.753Z,-0.10
2022-12-11T15:30:31.218Z,-0.10
2022-12-11T15:33:20.400Z,0.00
2022-12-11T15:35:57.847Z,0.00
2022-12-11T15:38:31.311Z,0.00
2022-12-11T15:40:59.748Z,0.00
2022-12-11T15:43:29.081Z,0.00
2022-12-11T15:45:57.261Z,0.10
2022-12-11T15:48:26.686Z,0.00
2022-12-11T15:50:54.717Z,0.10
2022-12-11T15:53:22.567Z,0.10
2022-12-11T15:55:50.857Z,0.00
2022-12-11T15:58:20.855Z,0.00
2022-12-11T16:00:48.970Z,0.00
2022-12-11T16:03:19.289Z,0.00
2022-12-11T16:05:49.745Z,0.00
2022-12-11T16:08:20.261Z,0.00
2022-12-11T16:10:49.326Z,0.00
2022-12-11T16:13:17.262Z,-0.10
2022-12-11T16:15:46.798Z,-0.10
2022-12-11T16:18:19.239Z,-0.10
2022-12-11T16:20:49.234Z,-0.10
2022-12-11T16:23:17.663Z,-0.10
2022-12-11T16:25:47.248Z,-0.10
2022-12-11T16:28:17.182Z,-0.10
2022-12-11T16:30:45.796Z,-0.10
2022-12-11T16:33:14.392Z,-0.10
2022-12-11T16:35:42.907Z,-0.10
2022-12-11T16:38:13.636Z,0.00
2022-12-11T16:40:41.718Z,0.00
2022-12-11T16:43:09.698Z,-0.10
2022-12-11T16:45:37.921Z,0.00
2022-12-11T16:48:06.949Z,0.20
2022-12-11T16:50:36.490Z,0.10
2022-12-11T16:53:04.785Z,0.10
2022-12-11T16:55:34.153Z,0.10
2022-12-11T16:58:02.408Z,0.30
2022-12-11T17:00:31.022Z,0.20
2022-12-11T17:02:59.387Z,0.20
2022-12-11T17:05:27.602Z,0.10
2022-12-11T17:07:56.442Z,0.10
2022-12-11T17:10:24.798Z,0.30
2022-12-11T17:12:54.266Z,0.50
2022-12-11T17:15:22.523Z,0.50
2022-12-11T17:17:50.643Z,0.50
2022-12-11T17:20:20.423Z,0.40
2022-12-11T17:22:48.470Z,0.40
2022-12-11T17:25:22.345Z,0.50
2022-12-11T17:27:50.411Z,0.30
2022-12-11T17:30:19.935Z,0.30
2022-12-11T17:32:49.104Z,0.20
2022-12-11T17:35:17.538Z,0.20
2022-12-11T17:37:45.704Z,0.10
2022-12-11T17:40:13.873Z,-0.10
2022-12-11T17:42:43.925Z,0.00
2022-12-11T17:45:13.277Z,0.00
2022-12-11T17:47:42.957Z,0.10
2022-12-11T17:50:11.551Z,0.10
2022-12-11T17:52:44.189Z,0.10
2022-12-11T17:55:12.770Z,0.10
2022-12-11T17:57:41.133Z,0.10
2022-12-11T18:00:10.798Z,0.20
2022-12-11T18:02:38.868Z,0.30
2022-12-11T18:05:08.783Z,0.40
2022-12-11T18:07:38.366Z,0.50
2022-12-11T18:10:07.189Z,0.60
2022-12-11T18:12:35.654Z,0.70
2022-12-11T18:15:04.838Z,0.60
2022-12-11T18:17:33.226Z,0.50
2022-12-11T18:20:01.294Z,0.40
2022-12-11T18:22:30.726Z,0.30
2022-12-11T18:24:59.609Z,0.30
2022-12-11T18:27:29.150Z,0.20
2022-12-11T18:29:57.447Z,0.30
2022-12-11T18:32:25.630Z,0.40
2022-12-11T18:34:53.707Z,0.40
2022-12-11T18:37:27.555Z,0.40
2022-12-11T18:39:57.356Z,0.40
2022-12-11T18:42:33.643Z,0.40
2022-12-11T18:45:02.279Z,0.50
2022-12-11T18:47:31.012Z,0.50
2022-12-11T18:50:03.946Z,0.50
2022-12-11T18:52:36.017Z,0.60
2022-12-11T18:55:06.237Z,0.50
2022-12-11T18:57:34.351Z,0.50
2022-12-11T19:00:07.055Z,0.50
2022-12-11T19:02:35.563Z,0.40
2022-12-11T19:05:03.482Z,0.50
2022-12-11T19:07:31.582Z,0.50
2022-12-11T19:09:59.530Z,0.50
2022-12-11T19:12:29.079Z,0.40
2022-12-11T19:14:57.034Z,0.40
2022-12-11T19:17:25.132Z,0.40
2022-12-11T19:19:53.162Z,0.20
2022-12-11T19:22:21.589Z,0.20
2022-12-11T19:24:49.775Z,0.30
2022-12-11T19:27:18.002Z,0.20
2022-12-11T19:29:47.328Z,0.20
2022-12-11T19:32:15.453Z,0.20
2022-12-11T19:34:43.361Z,0.00
2022-12-11T19:37:11.541Z,0.00
2022-12-11T19:39:41.123Z,0.00
2022-12-11T19:42:09.104Z,0.20
2022-12-11T19:44:37.180Z,0.10
2022-12-11T19:47:07.358Z,0.20
2022-12-11T19:49:35.334Z,0.20
2022-12-11T19:52:04.718Z,0.10
2022-12-11T19:54:32.679Z,0.00
2022-12-11T19:57:00.727Z,0.00
2022-12-11T19:59:28.642Z,-0.20
2022-12-11T20:01:56.862Z,-0.30
2022-12-11T20:04:26.254Z,-0.30
2022-12-11T20:06:54.315Z,-0.40
2022-12-11T20:09:22.595Z,-0.30
2022-12-11T20:11:50.901Z,-0.40
2022-12-11T20:14:21.902Z,-0.40
2022-12-11T20:19:39.740Z,-0.30
2022-12-11T20:22:07.789Z,-0.40
2022-12-11T20:24:35.919Z,-0.30
2022-12-11T20:27:04.337Z,-0.20
2022-12-11T20:29:33.112Z,-0.20
2022-12-11T20:32:01.321Z,-0.20
2022-12-11T20:34:29.512Z,-0.20
2022-12-11T20:37:00.319Z,-0.30
2022-12-11T20:39:29.202Z,-0.30
2022-12-11T20:41:57.129Z,-0.20
2022-12-11T20:44:25.458Z,-0.10
2022-12-11T20:46:53.640Z,-0.20
2022-12-11T20:49:21.575Z,-0.20
2022-12-11T20:51:49.676Z,-0.20
2022-12-11T20:54:18.979Z,-0.20
2022-12-11T20:56:47.818Z,-0.20
2022-12-11T20:59:15.984Z,-0.20
2022-12-11T21:01:44.492Z,-0.10
2022-12-11T21:04:12.954Z,-0.10
2022-12-11T21:06:42.166Z,-0.20
2022-12-11T21:09:14.799Z,-0.10
2022-12-11T21:11:44.500Z,-0.10
2022-12-11T21:14:12.474Z,-0.10
2022-12-11T21:16:40.899Z,0.00
2022-12-11T21:19:13.675Z,0.10
2022-12-11T21:21:45.651Z,0.00
2022-12-11T21:24:17.226Z,-0.10
2022-12-11T21:26:47.223Z,0.00
2022-12-11T21:29:15.758Z,-0.10
2022-12-11T21:31:44.592Z,0.00
2022-12-11T21:34:13.212Z,-0.10
2022-12-11T21:36:41.291Z,-0.10
2022-12-11T21:39:10.011Z,0.00
2022-12-11T21:41:38.366Z,0.10
2022-12-11T21:45:31.062Z,0.00
2022-12-11T21:46:55.974Z,-0.10
2022-12-11T21:49:24.161Z,-0.20
2022-12-11T21:51:52.361Z,-0.20
2022-12-11T21:54:21.383Z,-0.10
2022-12-11T21:56:49.716Z,-0.10
2022-12-11T21:59:18.964Z,-0.20
2022-12-11T22:01:47.279Z,-0.20
2022-12-11T22:04:16.753Z,-0.40
2022-12-11T22:06:47.336Z,-0.40
2022-12-11T22:09:17.898Z,-0.40
2022-12-11T22:11:47.994Z,-0.30
2022-12-11T22:14:18.781Z,-0.30
2022-12-11T22:16:47.350Z,-0.40
2022-12-11T22:19:15.710Z,-0.40
2022-12-11T22:21:43.886Z,-0.50
2022-12-11T22:24:11.961Z,-0.40
2022-12-11T22:26:40.915Z,-0.50
2022-12-11T22:29:08.995Z,-0.50
2022-12-11T22:31:38.404Z,-0.50
2022-12-11T22:34:06.335Z,-0.40
2022-12-11T22:36:34.500Z,-0.40
2022-12-11T22:39:03.060Z,-0.40
2022-12-11T22:41:32.869Z,-0.50
2022-12-11T22:44:01.405Z,-0.60
2022-12-11T22:46:31.863Z,-0.60
2022-12-11T22:49:01.305Z,-0.60
2022-12-11T22:51:29.233Z,-0.60
2022-12-11T22:53:58.615Z,-0.60
2022-12-11T22:56:27.064Z,-0.60
2022-12-11T22:58:55.313Z,-0.70
2022-12-11T23:01:25.422Z,-0.70
2022-12-11T23:03:54.161Z,-0.80
2022-12-11T23:06:25.807Z,-0.70
2022-12-11T23:08:55.149Z,-0.70
2022-12-11T23:11:25.852Z,-0.70
2022-12-11T23:13:54.462Z,-0.80
2022-12-11T23:16:24.596Z,-0.80
2022-12-11T23:18:53.082Z,-0.80
2022-12-11T23:21:21.819Z,-0.80
2022-12-11T23:23:51.296Z,-0.90
2022-12-11T23:26:20.189Z,-0.80
2022-12-11T23:28:48.560Z,-0.90
2022-12-11T23:31:17.571Z,-0.80
2022-12-11T23:33:45.825Z,-0.70
2022-12-11T23:36:14.511Z,-0.80
2022-12-11T23:38:42.819Z,-0.80
2022-12-11T23:41:15.086Z,-0.80
2022-12-11T23:43:43.694Z,-0.80
2022-12-11T23:46:15.016Z,-0.80
2022-12-11T23:48:43.751Z,-0.80
2022-12-11T23:51:15.165Z,-0.80
2022-12-11T23:53:43.940Z,-0.70
2022-12-11T23:56:15.921Z,-0.80
2022-12-11T23:58:44.124Z,-0.70
